sensor_id;sensor_type;location;lat;lon;timestamp;P1;durP1;ratioP1;P2;durP2;ratioP2
75916;SDS011;64595;50.148;14.334;2024-03-08T00:02:11;49.80;;;23.42;;
75916;SDS011;64595;50.148;14.334;2024-03-08T00:04:36;45.65;;;22.02;;
75916;SDS011;64595;50.148;14.334;2024-03-08T00:07:02;62.60;;;26.02;;
75916;SDS011;64595;50.148;14.334;2024-03-08T00:09:28;62.63;;;26.55;;
75916;SDS011;64595;50.148;14.334;2024-03-08T00:11:55;55.22;;;24.63;;
75916;SDS011;64595;50.148;14.334;2024-03-08T00:14:20;51.97;;;23.73;;
75916;SDS011;64595;50.148;14.334;2024-03-08T00:16:45;59.53;;;26.40;;
75916;SDS011;64595;50.148;14.334;2024-03-08T00:19:11;51.85;;;23.92;;
75916;SDS011;64595;50.148;14.334;2024-03-08T00:21:36;51.20;;;24.10;;
75916;SDS011;64595;50.148;14.334;2024-03-08T00:24:02;55.13;;;24.17;;
75916;SDS011;64595;50.148;14.334;2024-03-08T00:26:28;53.88;;;24.55;;
75916;SDS011;64595;50.148;14.334;2024-03-08T00:28:54;49.83;;;22.90;;
75916;SDS011;64595;50.148;14.334;2024-03-08T00:31:21;52.22;;;25.75;;
75916;SDS011;64595;50.148;14.334;2024-03-08T00:33:46;50.65;;;24.02;;
75916;SDS011;64595;50.148;14.334;2024-03-08T00:36:11;50.92;;;26.42;;
75916;SDS011;64595;50.148;14.334;2024-03-08T00:38:37;57.60;;;25.63;;
75916;SDS011;64595;50.148;14.334;2024-03-08T00:41:02;56.28;;;24.42;;
75916;SDS011;64595;50.148;14.334;2024-03-08T00:43:28;48.35;;;23.80;;
75916;SDS011;64595;50.148;14.334;2024-03-08T00:45:55;54.15;;;23.95;;
75916;SDS011;64595;50.148;14.334;2024-03-08T00:48:21;50.00;;;23.33;;
75916;SDS011;64595;50.148;14.334;2024-03-08T00:50:46;52.35;;;24.02;;
75916;SDS011;64595;50.148;14.334;2024-03-08T00:53:11;48.60;;;21.98;;
75916;SDS011;64595;50.148;14.334;2024-03-08T00:55:37;50.22;;;24.23;;
75916;SDS011;64595;50.148;14.334;2024-03-08T00:58:03;51.45;;;25.73;;
75916;SDS011;64595;50.148;14.334;2024-03-08T01:00:28;53.88;;;24.55;;
75916;SDS011;64595;50.148;14.334;2024-03-08T01:02:55;46.22;;;22.08;;
75916;SDS011;64595;50.148;14.334;2024-03-08T01:05:21;51.90;;;23.98;;
75916;SDS011;64595;50.148;14.334;2024-03-08T01:07:46;45.47;;;23.55;;
75916;SDS011;64595;50.148;14.334;2024-03-08T01:10:12;49.60;;;22.27;;
75916;SDS011;64595;50.148;14.334;2024-03-08T01:12:37;52.33;;;24.17;;
75916;SDS011;64595;50.148;14.334;2024-03-08T01:15:03;49.65;;;22.00;;
75916;SDS011;64595;50.148;14.334;2024-03-08T01:17:29;48.72;;;23.67;;
75916;SDS011;64595;50.148;14.334;2024-03-08T01:19:55;50.90;;;24.33;;
75916;SDS011;64595;50.148;14.334;2024-03-08T01:22:21;49.33;;;22.83;;
75916;SDS011;64595;50.148;14.334;2024-03-08T01:24:46;46.20;;;22.15;;
75916;SDS011;64595;50.148;14.334;2024-03-08T01:27:12;52.30;;;27.45;;
75916;SDS011;64595;50.148;14.334;2024-03-08T01:29:37;48.35;;;22.65;;
75916;SDS011;64595;50.148;14.334;2024-03-08T01:32:03;50.38;;;23.60;;
75916;SDS011;64595;50.148;14.334;2024-03-08T01:34:29;53.78;;;23.02;;
75916;SDS011;64595;50.148;14.334;2024-03-08T01:36:55;48.45;;;23.55;;
75916;SDS011;64595;50.148;14.334;2024-03-08T01:39:21;51.08;;;24.15;;
75916;SDS011;64595;50.148;14.334;2024-03-08T01:41:46;51.58;;;23.40;;
75916;SDS011;64595;50.148;14.334;2024-03-08T01:44:12;45.47;;;23.30;;
75916;SDS011;64595;50.148;14.334;2024-03-08T01:46:37;44.35;;;22.83;;
75916;SDS011;64595;50.148;14.334;2024-03-08T01:49:03;51.38;;;25.23;;
75916;SDS011;64595;50.148;14.334;2024-03-08T01:51:29;44.25;;;22.42;;
75916;SDS011;64595;50.148;14.334;2024-03-08T01:53:56;46.72;;;22.40;;
75916;SDS011;64595;50.148;14.334;2024-03-08T01:56:22;50.08;;;22.02;;
75916;SDS011;64595;50.148;14.334;2024-03-08T01:58:47;49.33;;;23.25;;
75916;SDS011;64595;50.148;14.334;2024-03-08T02:01:13;54.65;;;24.88;;
75916;SDS011;64595;50.148;14.334;2024-03-08T02:03:38;49.47;;;22.75;;
75916;SDS011;64595;50.148;14.334;2024-03-08T02:06:04;48.47;;;24.55;;
75916;SDS011;64595;50.148;14.334;2024-03-08T02:08:29;48.17;;;23.92;;
75916;SDS011;64595;50.148;14.334;2024-03-08T02:10:56;43.22;;;22.20;;
75916;SDS011;64595;50.148;14.334;2024-03-08T02:13:22;51.33;;;23.95;;
75916;SDS011;64595;50.148;14.334;2024-03-08T02:15:51;53.33;;;23.55;;
75916;SDS011;64595;50.148;14.334;2024-03-08T02:18:17;46.42;;;21.73;;
75916;SDS011;64595;50.148;14.334;2024-03-08T02:20:44;49.15;;;22.55;;
75916;SDS011;64595;50.148;14.334;2024-03-08T02:23:09;48.22;;;23.40;;
75916;SDS011;64595;50.148;14.334;2024-03-08T02:25:35;50.15;;;23.77;;
75916;SDS011;64595;50.148;14.334;2024-03-08T02:28:07;45.00;;;22.98;;
75916;SDS011;64595;50.148;14.334;2024-03-08T02:30:34;47.42;;;23.35;;
75916;SDS011;64595;50.148;14.334;2024-03-08T02:32:59;51.50;;;23.73;;
75916;SDS011;64595;50.148;14.334;2024-03-08T02:35:25;44.00;;;22.80;;
75916;SDS011;64595;50.148;14.334;2024-03-08T02:37:52;48.45;;;23.75;;
75916;SDS011;64595;50.148;14.334;2024-03-08T02:40:17;52.78;;;24.15;;
75916;SDS011;64595;50.148;14.334;2024-03-08T02:42:43;50.78;;;24.27;;
75916;SDS011;64595;50.148;14.334;2024-03-08T02:45:08;55.08;;;25.05;;
75916;SDS011;64595;50.148;14.334;2024-03-08T02:47:34;50.35;;;24.85;;
75916;SDS011;64595;50.148;14.334;2024-03-08T02:49:59;51.30;;;25.10;;
75916;SDS011;64595;50.148;14.334;2024-03-08T02:52:25;55.63;;;24.02;;
75916;SDS011;64595;50.148;14.334;2024-03-08T02:54:52;52.38;;;25.00;;
75916;SDS011;64595;50.148;14.334;2024-03-08T02:57:17;46.17;;;24.13;;
75916;SDS011;64595;50.148;14.334;2024-03-08T02:59:43;48.63;;;24.27;;
75916;SDS011;64595;50.148;14.334;2024-03-08T03:02:08;45.60;;;23.42;;
75916;SDS011;64595;50.148;14.334;2024-03-08T03:04:34;46.95;;;23.23;;
75916;SDS011;64595;50.148;14.334;2024-03-08T03:06:59;47.42;;;22.92;;
75916;SDS011;64595;50.148;14.334;2024-03-08T03:09:25;47.72;;;23.10;;
75916;SDS011;64595;50.148;14.334;2024-03-08T03:11:52;44.53;;;22.58;;
75916;SDS011;64595;50.148;14.334;2024-03-08T03:14:17;45.33;;;23.02;;
75916;SDS011;64595;50.148;14.334;2024-03-08T03:16:42;47.40;;;22.65;;
75916;SDS011;64595;50.148;14.334;2024-03-08T03:19:08;48.35;;;23.30;;
75916;SDS011;64595;50.148;14.334;2024-03-08T03:21:33;48.67;;;23.05;;
75916;SDS011;64595;50.148;14.334;2024-03-08T03:23:59;44.45;;;22.08;;
75916;SDS011;64595;50.148;14.334;2024-03-08T03:26:24;48.35;;;23.60;;
75916;SDS011;64595;50.148;14.334;2024-03-08T03:28:51;45.58;;;22.02;;
75916;SDS011;64595;50.148;14.334;2024-03-08T03:31:16;44.15;;;22.38;;
75916;SDS011;64595;50.148;14.334;2024-03-08T03:33:42;44.92;;;21.75;;
75916;SDS011;64595;50.148;14.334;2024-03-08T03:36:07;47.75;;;21.38;;
75916;SDS011;64595;50.148;14.334;2024-03-08T03:38:33;43.45;;;21.20;;
75916;SDS011;64595;50.148;14.334;2024-03-08T03:40:58;48.20;;;22.55;;
75916;SDS011;64595;50.148;14.334;2024-03-08T03:43:24;43.38;;;21.10;;
75916;SDS011;64595;50.148;14.334;2024-03-08T03:45:51;50.50;;;22.25;;
75916;SDS011;64595;50.148;14.334;2024-03-08T03:48:16;43.55;;;23.30;;
75916;SDS011;64595;50.148;14.334;2024-03-08T03:50:41;46.38;;;22.25;;
75916;SDS011;64595;50.148;14.334;2024-03-08T03:53:07;52.63;;;24.20;;
75916;SDS011;64595;50.148;14.334;2024-03-08T03:55:33;45.22;;;22.60;;
75916;SDS011;64595;50.148;14.334;2024-03-08T03:57:58;51.55;;;22.38;;
75916;SDS011;64595;50.148;14.334;2024-03-08T04:00:24;47.55;;;22.25;;
75916;SDS011;64595;50.148;14.334;2024-03-08T04:02:51;41.33;;;20.75;;
75916;SDS011;64595;50.148;14.334;2024-03-08T04:05:16;45.22;;;20.77;;
75916;SDS011;64595;50.148;14.334;2024-03-08T04:07:42;44.95;;;22.50;;
75916;SDS011;64595;50.148;14.334;2024-03-08T04:10:08;44.20;;;21.55;;
75916;SDS011;64595;50.148;14.334;2024-03-08T04:12:34;48.58;;;20.67;;
75916;SDS011;64595;50.148;14.334;2024-03-08T04:15:00;45.20;;;21.23;;
75916;SDS011;64595;50.148;14.334;2024-03-08T04:17:25;44.83;;;21.33;;
75916;SDS011;64595;50.148;14.334;2024-03-08T04:19:52;44.50;;;20.92;;
75916;SDS011;64595;50.148;14.334;2024-03-08T04:22:18;45.47;;;21.08;;
75916;SDS011;64595;50.148;14.334;2024-03-08T04:24:43;45.08;;;20.58;;
75916;SDS011;64595;50.148;14.334;2024-03-08T04:27:09;48.50;;;21.50;;
75916;SDS011;64595;50.148;14.334;2024-03-08T04:29:34;45.88;;;20.92;;
75916;SDS011;64595;50.148;14.334;2024-03-08T04:32:01;47.40;;;21.30;;
75916;SDS011;64595;50.148;14.334;2024-03-08T04:34:27;41.90;;;20.38;;
75916;SDS011;64595;50.148;14.334;2024-03-08T04:36:54;47.20;;;21.88;;
75916;SDS011;64595;50.148;14.334;2024-03-08T04:39:22;47.38;;;21.67;;
75916;SDS011;64595;50.148;14.334;2024-03-08T04:41:47;49.15;;;23.02;;
75916;SDS011;64595;50.148;14.334;2024-03-08T04:44:13;46.10;;;21.85;;
75916;SDS011;64595;50.148;14.334;2024-03-08T04:46:38;52.67;;;23.15;;
75916;SDS011;64595;50.148;14.334;2024-03-08T04:49:04;46.42;;;23.20;;
75916;SDS011;64595;50.148;14.334;2024-03-08T04:51:29;51.95;;;23.83;;
75916;SDS011;64595;50.148;14.334;2024-03-08T04:53:56;52.58;;;23.35;;
75916;SDS011;64595;50.148;14.334;2024-03-08T04:56:21;54.17;;;24.80;;
75916;SDS011;64595;50.148;14.334;2024-03-08T04:58:47;55.88;;;26.92;;
75916;SDS011;64595;50.148;14.334;2024-03-08T05:01:12;53.10;;;23.15;;
75916;SDS011;64595;50.148;14.334;2024-03-08T05:03:38;48.58;;;21.50;;
75916;SDS011;64595;50.148;14.334;2024-03-08T05:06:03;46.10;;;21.42;;
75916;SDS011;64595;50.148;14.334;2024-03-08T05:08:29;47.15;;;22.65;;
75916;SDS011;64595;50.148;14.334;2024-03-08T05:10:56;45.00;;;21.10;;
75916;SDS011;64595;50.148;14.334;2024-03-08T05:13:21;46.65;;;21.88;;
75916;SDS011;64595;50.148;14.334;2024-03-08T05:15:48;48.38;;;21.55;;
75916;SDS011;64595;50.148;14.334;2024-03-08T05:18:13;48.85;;;22.08;;
75916;SDS011;64595;50.148;14.334;2024-03-08T05:20:39;46.90;;;21.55;;
75916;SDS011;64595;50.148;14.334;2024-03-08T05:23:04;48.28;;;20.65;;
75916;SDS011;64595;50.148;14.334;2024-03-08T05:25:30;45.92;;;20.40;;
75916;SDS011;64595;50.148;14.334;2024-03-08T05:27:56;47.15;;;21.67;;
75916;SDS011;64595;50.148;14.334;2024-03-08T05:30:22;49.38;;;22.45;;
75916;SDS011;64595;50.148;14.334;2024-03-08T05:32:47;52.03;;;23.70;;
75916;SDS011;64595;50.148;14.334;2024-03-08T05:35:13;53.30;;;22.17;;
75916;SDS011;64595;50.148;14.334;2024-03-08T05:37:38;47.08;;;22.77;;
75916;SDS011;64595;50.148;14.334;2024-03-08T05:40:04;50.10;;;20.40;;
75916;SDS011;64595;50.148;14.334;2024-03-08T05:42:30;50.22;;;22.42;;
75916;SDS011;64595;50.148;14.334;2024-03-08T05:44:57;52.40;;;25.15;;
75916;SDS011;64595;50.148;14.334;2024-03-08T05:47:23;51.17;;;23.60;;
75916;SDS011;64595;50.148;14.334;2024-03-08T05:49:48;53.70;;;25.58;;
75916;SDS011;64595;50.148;14.334;2024-03-08T05:52:14;51.67;;;23.63;;
75916;SDS011;64595;50.148;14.334;2024-03-08T05:54:39;47.35;;;22.75;;
75916;SDS011;64595;50.148;14.334;2024-03-08T05:57:05;48.38;;;21.42;;
75916;SDS011;64595;50.148;14.334;2024-03-08T05:59:30;50.50;;;22.77;;
75916;SDS011;64595;50.148;14.334;2024-03-08T06:01:57;53.72;;;21.52;;
75916;SDS011;64595;50.148;14.334;2024-03-08T06:04:23;52.50;;;23.13;;
75916;SDS011;64595;50.148;14.334;2024-03-08T06:06:48;51.17;;;23.02;;
75916;SDS011;64595;50.148;14.334;2024-03-08T06:09:14;49.03;;;24.13;;
75916;SDS011;64595;50.148;14.334;2024-03-08T06:11:39;53.58;;;22.90;;
75916;SDS011;64595;50.148;14.334;2024-03-08T06:14:05;50.22;;;22.85;;
75916;SDS011;64595;50.148;14.334;2024-03-08T06:16:30;51.97;;;26.02;;
75916;SDS011;64595;50.148;14.334;2024-03-08T06:18:57;50.92;;;24.05;;
75916;SDS011;64595;50.148;14.334;2024-03-08T06:21:23;53.63;;;25.60;;
75916;SDS011;64595;50.148;14.334;2024-03-08T06:23:48;52.03;;;24.98;;
75916;SDS011;64595;50.148;14.334;2024-03-08T06:26:14;52.90;;;26.42;;
75916;SDS011;64595;50.148;14.334;2024-03-08T06:28:39;51.88;;;22.55;;
75916;SDS011;64595;50.148;14.334;2024-03-08T06:31:05;61.33;;;26.05;;
75916;SDS011;64595;50.148;14.334;2024-03-08T06:33:31;57.08;;;25.85;;
75916;SDS011;64595;50.148;14.334;2024-03-08T06:35:58;58.72;;;26.05;;
75916;SDS011;64595;50.148;14.334;2024-03-08T06:38:23;53.95;;;24.05;;
75916;SDS011;64595;50.148;14.334;2024-03-08T06:40:49;55.20;;;27.23;;
75916;SDS011;64595;50.148;14.334;2024-03-08T06:43:14;54.08;;;25.27;;
75916;SDS011;64595;50.148;14.334;2024-03-08T06:45:40;56.22;;;25.92;;
75916;SDS011;64595;50.148;14.334;2024-03-08T06:48:05;53.78;;;24.30;;
75916;SDS011;64595;50.148;14.334;2024-03-08T06:50:31;53.28;;;23.85;;
75916;SDS011;64595;50.148;14.334;2024-03-08T06:52:58;53.65;;;25.58;;
75916;SDS011;64595;50.148;14.334;2024-03-08T06:55:23;59.38;;;24.90;;
75916;SDS011;64595;50.148;14.334;2024-03-08T06:57:49;50.90;;;25.05;;
75916;SDS011;64595;50.148;14.334;2024-03-08T07:00:15;50.50;;;24.70;;
75916;SDS011;64595;50.148;14.334;2024-03-08T07:02:40;54.33;;;25.20;;
75916;SDS011;64595;50.148;14.334;2024-03-08T07:05:06;51.28;;;24.95;;
75916;SDS011;64595;50.148;14.334;2024-03-08T07:07:32;50.53;;;23.67;;
75916;SDS011;64595;50.148;14.334;2024-03-08T07:09:59;50.53;;;23.20;;
75916;SDS011;64595;50.148;14.334;2024-03-08T07:12:24;49.90;;;23.02;;
75916;SDS011;64595;50.148;14.334;2024-03-08T07:14:50;55.20;;;24.73;;
75916;SDS011;64595;50.148;14.334;2024-03-08T07:17:15;53.00;;;24.10;;
75916;SDS011;64595;50.148;14.334;2024-03-08T07:19:41;43.08;;;22.58;;
75916;SDS011;64595;50.148;14.334;2024-03-08T07:22:06;48.13;;;23.05;;
75916;SDS011;64595;50.148;14.334;2024-03-08T07:24:32;48.20;;;22.95;;
75916;SDS011;64595;50.148;14.334;2024-03-08T07:26:59;50.70;;;23.83;;
75916;SDS011;64595;50.148;14.334;2024-03-08T07:29:24;45.95;;;22.20;;
75916;SDS011;64595;50.148;14.334;2024-03-08T07:31:50;44.30;;;23.08;;
75916;SDS011;64595;50.148;14.334;2024-03-08T07:34:15;47.40;;;23.33;;
75916;SDS011;64595;50.148;14.334;2024-03-08T07:36:41;44.97;;;22.58;;
75916;SDS011;64595;50.148;14.334;2024-03-08T07:39:06;44.45;;;21.60;;
75916;SDS011;64595;50.148;14.334;2024-03-08T07:41:31;48.03;;;21.98;;
75916;SDS011;64595;50.148;14.334;2024-03-08T07:43:58;47.33;;;22.23;;
75916;SDS011;64595;50.148;14.334;2024-03-08T07:46:24;45.28;;;21.35;;
75916;SDS011;64595;50.148;14.334;2024-03-08T07:48:49;42.95;;;20.80;;
75916;SDS011;64595;50.148;14.334;2024-03-08T07:51:15;43.08;;;22.63;;
75916;SDS011;64595;50.148;14.334;2024-03-08T07:53:41;45.75;;;21.83;;
75916;SDS011;64595;50.148;14.334;2024-03-08T07:56:06;42.13;;;21.27;;
75916;SDS011;64595;50.148;14.334;2024-03-08T07:58:32;40.13;;;20.27;;
75916;SDS011;64595;50.148;14.334;2024-03-08T08:01:00;40.85;;;20.30;;
75916;SDS011;64595;50.148;14.334;2024-03-08T08:03:26;41.30;;;20.95;;
75916;SDS011;64595;50.148;14.334;2024-03-08T08:05:53;41.05;;;20.00;;
75916;SDS011;64595;50.148;14.334;2024-03-08T08:08:19;40.45;;;21.08;;
75916;SDS011;64595;50.148;14.334;2024-03-08T08:10:45;39.67;;;20.48;;
75916;SDS011;64595;50.148;14.334;2024-03-08T08:13:11;41.65;;;20.08;;
75916;SDS011;64595;50.148;14.334;2024-03-08T08:15:37;40.97;;;20.25;;
75916;SDS011;64595;50.148;14.334;2024-03-08T08:18:06;42.13;;;20.13;;
75916;SDS011;64595;50.148;14.334;2024-03-08T08:20:32;42.05;;;19.90;;
75916;SDS011;64595;50.148;14.334;2024-03-08T08:22:59;38.55;;;20.40;;
75916;SDS011;64595;50.148;14.334;2024-03-08T08:25:25;37.17;;;19.40;;
75916;SDS011;64595;50.148;14.334;2024-03-08T08:27:50;35.75;;;18.90;;
75916;SDS011;64595;50.148;14.334;2024-03-08T08:30:16;34.58;;;18.40;;
75916;SDS011;64595;50.148;14.334;2024-03-08T08:32:42;34.38;;;18.98;;
75916;SDS011;64595;50.148;14.334;2024-03-08T08:35:09;40.08;;;20.63;;
75916;SDS011;64595;50.148;14.334;2024-03-08T08:37:34;37.60;;;19.35;;
75916;SDS011;64595;50.148;14.334;2024-03-08T08:40:00;36.60;;;20.00;;
75916;SDS011;64595;50.148;14.334;2024-03-08T08:42:25;33.50;;;19.20;;
75916;SDS011;64595;50.148;14.334;2024-03-08T08:44:51;36.50;;;19.20;;
75916;SDS011;64595;50.148;14.334;2024-03-08T08:47:17;41.65;;;19.48;;
75916;SDS011;64595;50.148;14.334;2024-03-08T08:49:42;34.25;;;18.77;;
75916;SDS011;64595;50.148;14.334;2024-03-08T08:52:09;38.33;;;20.45;;
75916;SDS011;64595;50.148;14.334;2024-03-08T08:54:35;32.28;;;16.58;;
75916;SDS011;64595;50.148;14.334;2024-03-08T08:57:00;36.35;;;18.95;;
75916;SDS011;64595;50.148;14.334;2024-03-08T08:59:26;37.72;;;21.30;;
75916;SDS011;64595;50.148;14.334;2024-03-08T09:01:51;34.97;;;19.00;;
75916;SDS011;64595;50.148;14.334;2024-03-08T09:04:17;34.25;;;19.67;;
75916;SDS011;64595;50.148;14.334;2024-03-08T09:06:42;39.00;;;20.90;;
75916;SDS011;64595;50.148;14.334;2024-03-08T09:09:09;35.05;;;19.73;;
75916;SDS011;64595;50.148;14.334;2024-03-08T09:11:35;34.45;;;18.42;;
75916;SDS011;64595;50.148;14.334;2024-03-08T09:14:00;38.00;;;19.55;;
75916;SDS011;64595;50.148;14.334;2024-03-08T09:16:26;31.08;;;19.20;;
75916;SDS011;64595;50.148;14.334;2024-03-08T09:18:51;33.33;;;19.05;;
75916;SDS011;64595;50.148;14.334;2024-03-08T09:21:17;32.33;;;19.45;;
75916;SDS011;64595;50.148;14.334;2024-03-08T09:23:42;37.38;;;18.13;;
75916;SDS011;64595;50.148;14.334;2024-03-08T09:26:09;31.27;;;19.77;;
75916;SDS011;64595;50.148;14.334;2024-03-08T09:28:34;34.90;;;19.17;;
75916;SDS011;64595;50.148;14.334;2024-03-08T09:31:00;36.38;;;18.80;;
75916;SDS011;64595;50.148;14.334;2024-03-08T09:33:25;35.42;;;17.77;;
75916;SDS011;64595;50.148;14.334;2024-03-08T09:35:51;30.95;;;17.67;;
75916;SDS011;64595;50.148;14.334;2024-03-08T09:38:16;32.47;;;19.63;;
75916;SDS011;64595;50.148;14.334;2024-03-08T09:40:42;37.72;;;19.95;;
75916;SDS011;64595;50.148;14.334;2024-03-08T09:43:09;33.38;;;19.63;;
75916;SDS011;64595;50.148;14.334;2024-03-08T09:45:36;31.85;;;19.13;;
75916;SDS011;64595;50.148;14.334;2024-03-08T09:48:01;32.85;;;19.45;;
75916;SDS011;64595;50.148;14.334;2024-03-08T09:50:27;32.35;;;17.30;;
75916;SDS011;64595;50.148;14.334;2024-03-08T09:52:52;31.20;;;18.17;;
75916;SDS011;64595;50.148;14.334;2024-03-08T09:55:18;38.17;;;18.92;;
75916;SDS011;64595;50.148;14.334;2024-03-08T09:57:44;37.28;;;20.73;;
75916;SDS011;64595;50.148;14.334;2024-03-08T10:00:13;34.83;;;18.02;;
75916;SDS011;64595;50.148;14.334;2024-03-08T10:02:38;33.45;;;19.45;;
75916;SDS011;64595;50.148;14.334;2024-03-08T10:05:04;32.53;;;18.95;;
75916;SDS011;64595;50.148;14.334;2024-03-08T10:07:30;32.78;;;19.30;;
75916;SDS011;64595;50.148;14.334;2024-03-08T10:09:56;35.60;;;20.52;;
75916;SDS011;64595;50.148;14.334;2024-03-08T10:12:21;31.10;;;18.52;;
75916;SDS011;64595;50.148;14.334;2024-03-08T10:14:47;28.35;;;17.58;;
75916;SDS011;64595;50.148;14.334;2024-03-08T10:17:13;30.33;;;17.70;;
75916;SDS011;64595;50.148;14.334;2024-03-08T10:19:39;30.80;;;16.88;;
75916;SDS011;64595;50.148;14.334;2024-03-08T10:22:14;33.90;;;18.05;;
75916;SDS011;64595;50.148;14.334;2024-03-08T10:24:40;28.25;;;17.35;;
75916;SDS011;64595;50.148;14.334;2024-03-08T10:27:05;30.58;;;17.80;;
75916;SDS011;64595;50.148;14.334;2024-03-08T10:29:31;28.40;;;17.10;;
75916;SDS011;64595;50.148;14.334;2024-03-08T10:31:57;29.98;;;17.83;;
75916;SDS011;64595;50.148;14.334;2024-03-08T10:34:24;28.15;;;16.33;;
75916;SDS011;64595;50.148;14.334;2024-03-08T10:36:50;29.65;;;17.42;;
75916;SDS011;64595;50.148;14.334;2024-03-08T10:39:18;29.13;;;16.50;;
75916;SDS011;64595;50.148;14.334;2024-03-08T10:41:47;28.52;;;16.88;;
75916;SDS011;64595;50.148;14.334;2024-03-08T10:44:17;30.33;;;17.40;;
75916;SDS011;64595;50.148;14.334;2024-03-08T10:46:55;28.83;;;16.88;;
75916;SDS011;64595;50.148;14.334;2024-03-08T10:49:30;28.48;;;16.55;;
75916;SDS011;64595;50.148;14.334;2024-03-08T10:51:57;28.27;;;18.25;;
75916;SDS011;64595;50.148;14.334;2024-03-08T10:54:22;30.20;;;17.38;;
75916;SDS011;64595;50.148;14.334;2024-03-08T10:56:49;27.35;;;17.70;;
75916;SDS011;64595;50.148;14.334;2024-03-08T10:59:14;27.40;;;16.10;;
75916;SDS011;64595;50.148;14.334;2024-03-08T11:01:40;24.95;;;16.15;;
75916;SDS011;64595;50.148;14.334;2024-03-08T11:04:06;27.83;;;16.60;;
75916;SDS011;64595;50.148;14.334;2024-03-08T11:06:41;27.25;;;16.88;;
75916;SDS011;64595;50.148;14.334;2024-03-08T11:09:08;26.92;;;15.98;;
75916;SDS011;64595;50.148;14.334;2024-03-08T11:11:33;25.42;;;16.20;;
75916;SDS011;64595;50.148;14.334;2024-03-08T11:13:59;26.27;;;16.00;;
75916;SDS011;64595;50.148;14.334;2024-03-08T11:16:37;26.08;;;16.55;;
75916;SDS011;64595;50.148;14.334;2024-03-08T11:19:05;25.55;;;16.08;;
75916;SDS011;64595;50.148;14.334;2024-03-08T11:21:31;26.83;;;18.15;;
75916;SDS011;64595;50.148;14.334;2024-03-08T11:24:00;25.30;;;15.65;;
75916;SDS011;64595;50.148;14.334;2024-03-08T11:26:25;25.13;;;17.58;;
75916;SDS011;64595;50.148;14.334;2024-03-08T11:28:51;22.27;;;15.13;;
75916;SDS011;64595;50.148;14.334;2024-03-08T11:31:23;27.17;;;16.92;;
75916;SDS011;64595;50.148;14.334;2024-03-08T11:33:49;26.55;;;18.10;;
75916;SDS011;64595;50.148;14.334;2024-03-08T11:36:19;26.55;;;16.65;;
75916;SDS011;64595;50.148;14.334;2024-03-08T11:38:46;26.23;;;17.52;;
75916;SDS011;64595;50.148;14.334;2024-03-08T11:41:12;26.73;;;17.17;;
75916;SDS011;64595;50.148;14.334;2024-03-08T11:43:38;26.58;;;16.88;;
75916;SDS011;64595;50.148;14.334;2024-03-08T11:46:07;25.77;;;16.33;;
75916;SDS011;64595;50.148;14.334;2024-03-08T11:48:32;25.77;;;16.52;;
75916;SDS011;64595;50.148;14.334;2024-03-08T11:50:59;26.60;;;17.15;;
75916;SDS011;64595;50.148;14.334;2024-03-08T11:53:24;24.75;;;17.20;;
75916;SDS011;64595;50.148;14.334;2024-03-08T11:55:50;22.30;;;13.85;;
75916;SDS011;64595;50.148;14.334;2024-03-08T11:58:17;27.05;;;17.05;;
75916;SDS011;64595;50.148;14.334;2024-03-08T12:00:42;23.08;;;16.50;;
75916;SDS011;64595;50.148;14.334;2024-03-08T12:03:08;21.95;;;14.25;;
75916;SDS011;64595;50.148;14.334;2024-03-08T12:05:33;21.58;;;14.07;;
75916;SDS011;64595;50.148;14.334;2024-03-08T12:07:59;21.30;;;14.40;;
75916;SDS011;64595;50.148;14.334;2024-03-08T12:10:25;24.17;;;14.55;;
75916;SDS011;64595;50.148;14.334;2024-03-08T12:12:51;23.17;;;14.07;;
75916;SDS011;64595;50.148;14.334;2024-03-08T12:15:18;20.73;;;12.95;;
75916;SDS011;64595;50.148;14.334;2024-03-08T12:17:45;21.83;;;13.85;;
75916;SDS011;64595;50.148;14.334;2024-03-08T12:20:11;21.08;;;12.65;;
75916;SDS011;64595;50.148;14.334;2024-03-08T12:22:40;19.88;;;12.30;;
75916;SDS011;64595;50.148;14.334;2024-03-08T12:25:06;19.33;;;12.60;;
75916;SDS011;64595;50.148;14.334;2024-03-08T12:27:32;20.00;;;12.18;;
75916;SDS011;64595;50.148;14.334;2024-03-08T12:29:58;20.00;;;12.77;;
75916;SDS011;64595;50.148;14.334;2024-03-08T12:32:25;21.13;;;14.38;;
75916;SDS011;64595;50.148;14.334;2024-03-08T12:34:51;19.13;;;11.77;;
75916;SDS011;64595;50.148;14.334;2024-03-08T12:37:17;18.83;;;12.68;;
75916;SDS011;64595;50.148;14.334;2024-03-08T12:39:43;20.45;;;11.80;;
75916;SDS011;64595;50.148;14.334;2024-03-08T12:42:08;18.73;;;12.50;;
75916;SDS011;64595;50.148;14.334;2024-03-08T12:44:34;19.15;;;12.55;;
75916;SDS011;64595;50.148;14.334;2024-03-08T12:46:59;17.30;;;11.18;;
75916;SDS011;64595;50.148;14.334;2024-03-08T12:49:26;18.55;;;11.50;;
75916;SDS011;64595;50.148;14.334;2024-03-08T12:51:51;18.30;;;11.70;;
75916;SDS011;64595;50.148;14.334;2024-03-08T12:54:17;18.23;;;11.32;;
75916;SDS011;64595;50.148;14.334;2024-03-08T12:56:42;18.38;;;12.32;;
75916;SDS011;64595;50.148;14.334;2024-03-08T12:59:08;20.77;;;12.35;;
75916;SDS011;64595;50.148;14.334;2024-03-08T13:01:34;22.58;;;12.23;;
75916;SDS011;64595;50.148;14.334;2024-03-08T13:03:59;18.92;;;12.55;;
75916;SDS011;64595;50.148;14.334;2024-03-08T13:06:27;18.70;;;12.63;;
75916;SDS011;64595;50.148;14.334;2024-03-08T13:09:01;14.80;;;8.85;;
75916;SDS011;64595;50.148;14.334;2024-03-08T13:11:26;18.45;;;8.82;;
75916;SDS011;64595;50.148;14.334;2024-03-08T13:13:52;19.88;;;11.20;;
75916;SDS011;64595;50.148;14.334;2024-03-08T13:16:18;31.33;;;17.90;;
75916;SDS011;64595;50.148;14.334;2024-03-08T13:18:43;15.82;;;10.48;;
75916;SDS011;64595;50.148;14.334;2024-03-08T13:21:09;11.35;;;8.02;;
75916;SDS011;64595;50.148;14.334;2024-03-08T13:23:39;11.25;;;7.75;;
75916;SDS011;64595;50.148;14.334;2024-03-08T13:26:08;10.18;;;7.25;;
75916;SDS011;64595;50.148;14.334;2024-03-08T13:28:35;11.60;;;8.20;;
75916;SDS011;64595;50.148;14.334;2024-03-08T13:31:01;11.23;;;7.63;;
75916;SDS011;64595;50.148;14.334;2024-03-08T13:33:28;13.10;;;8.25;;
75916;SDS011;64595;50.148;14.334;2024-03-08T13:35:53;15.40;;;10.00;;
75916;SDS011;64595;50.148;14.334;2024-03-08T13:38:19;15.52;;;9.65;;
75916;SDS011;64595;50.148;14.334;2024-03-08T13:40:46;15.25;;;10.30;;
75916;SDS011;64595;50.148;14.334;2024-03-08T13:43:12;15.45;;;10.70;;
75916;SDS011;64595;50.148;14.334;2024-03-08T13:45:39;15.43;;;11.00;;
75916;SDS011;64595;50.148;14.334;2024-03-08T13:48:05;15.73;;;11.30;;
75916;SDS011;64595;50.148;14.334;2024-03-08T13:50:31;11.68;;;9.23;;
75916;SDS011;64595;50.148;14.334;2024-03-08T13:52:56;16.25;;;10.52;;
75916;SDS011;64595;50.148;14.334;2024-03-08T13:55:22;26.90;;;14.23;;
75916;SDS011;64595;50.148;14.334;2024-03-08T13:57:50;16.88;;;12.00;;
75916;SDS011;64595;50.148;14.334;2024-03-08T14:00:16;17.33;;;10.88;;
75916;SDS011;64595;50.148;14.334;2024-03-08T14:02:42;15.05;;;9.43;;